Thailine 5 — 9WFF5 — position and weather

sailwx.info

Track history (hours):
 
Tides and Currents Weather Stations Pressure Air Temp Water Temp Dewpoint Dewpoint Depression Visibility Wind Speed Wind Dir Waves Ship Positions

Thailine 5

Last reported at 2014-Jul-28 22:24 UTC. Time now 2014-Jul-29 00:43 UTC.
Position N 29°39' E 123°07'.

Length 98 m; draft 4.8 m.

Type: Cargo ship. MMSI: 533399000.

Date/timePositionNaut miles runAvg speedWind from/ knotsBaromVisibWave heightAir tempDewpointWater temp
2014-Jul-28 22:24N 29°39' E 123°07'2812.3
2014-Jul-28 20:06N 30°07' E 123°07'711.8
2014-Jul-28 19:30N 30°15' E 123°07'1211.9
2014-Jul-28 18:27N 30°27' E 123°05'1111.9
2014-Jul-28 17:31N 30°37' E 123°00'1111.4
2014-Jul-28 16:33N 30°47' E 122°53'1111.0
2014-Jul-28 15:31N 30°55' E 122°45'22 9.5
2014-Jul-28 13:13N 31°01' E 122°20'5 6.9
2014-Jul-28 12:31N 31°02' E 122°15'3210.7
2014-Jul-28 09:32N 31°19' E 121°42'1010.7
2014-Jul-28 08:33N 31°24' E 121°32'3 2.8
2014-Jul-28 07:33N 31°21' E 121°31'0 0.0
2014-Jul-28 06:27N 31°21' E 121°31'0 0.0
2014-Jul-28 05:21N 31°21' E 121°31'0 0.0
2014-Jul-28 04:33N 31°21' E 121°31'0 0.0
2014-Jul-28 03:33N 31°21' E 121°31'0 0.0
2014-Jul-28 02:33N 31°21' E 121°31'0 0.0
2014-Jul-28 01:27N 31°21' E 121°31'0 0.1
2014-Jul-28 00:33N 31°21' E 121°31'0 0.0
2014-Jul-27 23:27N 31°21' E 121°31'0 0.0
2014-Jul-27 22:33N 31°21' E 121°31'0 0.0
2014-Jul-27 21:33N 31°21' E 121°31'0 0.0
2014-Jul-27 20:33N 31°21' E 121°31'3 2.9
2014-Jul-27 19:33N 31°24' E 121°32'6 5.7
2014-Jul-27 18:33N 31°22' E 121°38'4210.3
2014-Jul-27 14:28N 31°02' E 122°21'12 9.4
2014-Jul-27 13:14N 31°00' E 122°35'8 0.2
2014-Jul-26 03:33N 30°53' E 122°31'1111.4
2014-Jul-26 02:33N 30°49' E 122°19'1111.0
2014-Jul-26 01:33N 30°39' E 122°14'9 6.4
2014-Jul-26 00:09N 30°30' E 122°13'0 0.0
2014-Jul-25 23:21N 30°30' E 122°13'0 0.1
2014-Jul-25 22:27N 30°30' E 122°14'0 0.0
2014-Jul-25 21:15N 30°30' E 122°14'0 0.0
2014-Jul-25 20:33N 30°30' E 122°14'0 0.0
2014-Jul-25 19:27N 30°30' E 122°14'0 0.0
2014-Jul-25 18:27N 30°30' E 122°14'0 0.0
2014-Jul-25 17:33N 30°30' E 122°14'0 0.0
2014-Jul-25 16:09N 30°30' E 122°14'0 0.0
2014-Jul-25 09:21N 30°30' E 122°14'0 0.1
2014-Jul-25 08:27N 30°30' E 122°14'0 0.0
2014-Jul-25 07:33N 30°30' E 122°14'0 0.0
2014-Jul-25 06:33N 30°30' E 122°14'0 0.1
2014-Jul-25 05:27N 30°30' E 122°14'0 0.0
2014-Jul-25 04:27N 30°30' E 122°14'0 0.0
2014-Jul-24 22:27N 30°30' E 122°13'0 0.0
2014-Jul-24 21:09N 30°30' E 122°13'0 0.0
2014-Jul-24 16:33N 30°30' E 122°13'0 0.0
2014-Jul-24 08:33N 30°30' E 122°13'0 0.1
2014-Jul-24 07:33N 30°30' E 122°14'0 0.1
2014-Jul-24 06:27N 30°30' E 122°14'0 0.0
2014-Jul-24 05:21N 30°30' E 122°14'0 0.1
2014-Jul-24 04:15N 30°30' E 122°14'0 0.0
2014-Jul-24 03:09N 30°30' E 122°13'0 0.0
2014-Jul-24 02:15N 30°30' E 122°13'0 0.1
2014-Jul-24 01:21N 30°30' E 122°13'0 0.0
2014-Jul-24 00:33N 30°30' E 122°13'0 0.0
2014-Jul-23 19:21N 30°30' E 122°14'0 0.0
2014-Jul-23 18:33N 30°30' E 122°14'0 0.0
2014-Jul-23 15:33N 30°30' E 122°14'0 0.1
2014-Jul-23 14:33N 30°30' E 122°13'0 0.0
2014-Jul-23 13:27N 30°30' E 122°13'0 0.0
2014-Jul-23 11:33N 30°30' E 122°13'0 0.0
2014-Jul-23 10:27N 30°30' E 122°13'0 0.1
2014-Jul-23 09:09N 30°30' E 122°13'0 0.0
2014-Jul-23 08:27N 30°30' E 122°13'0 0.1
2014-Jul-23 07:21N 30°30' E 122°14'0 0.1
2014-Jul-23 06:09N 30°30' E 122°14'0 0.0
2014-Jul-23 05:27N 30°30' E 122°14'0 0.1
2014-Jul-23 04:33N 30°30' E 122°14'5 5.2
2014-Jul-23 03:33N 30°34' E 122°12'10 9.8
2014-Jul-23 02:34N 30°44' E 122°16'1010.1
2014-Jul-23 01:33N 30°52' E 122°23'1110.4
2014-Jul-23 00:30N 30°56' E 122°34'7 1.7
2014-Jul-22 20:33N 31°02' E 122°38'0 0.0
2014-Jul-21 00:33N 31°02' E 122°38'0 0.0
2014-Jul-20 20:31N 31°02' E 122°38'20 9.5
2014-Jul-20 18:23N 30°57' E 123°00'1112.6
2014-Jul-20 17:32N 30°51' E 123°11'2412.1
2014-Jul-20 15:31N 30°28' E 123°20'2712.4
2014-Jul-20 13:22N 30°02' E 123°20'2812.4
2014-Jul-20 11:05N 29°34' E 123°14'1212.4
2014-Jul-20 10:08N 29°22' E 123°12'  
Track history (hours):
 
Tides and Currents Weather Stations Pressure Air Temp Water Temp Dewpoint Dewpoint Depression Visibility Wind Speed Wind Dir Waves Ship Positions

Thailine 5

Last reported at 2014-Jul-28 22:24 UTC. Time now 2014-Jul-29 00:43 UTC.
Position N 29°39' E 123°07'.

Length 98 m; draft 4.8 m.

Type: Cargo ship. MMSI: 533399000.

Date/timePositionNaut miles runAvg speedWind from/ knotsBaromVisibWave heightAir tempDewpointWater temp
2014-Jul-28 22:24N 29°39' E 123°07'2812.3
2014-Jul-28 20:06N 30°07' E 123°07'711.8
2014-Jul-28 19:30N 30°15' E 123°07'1211.9
2014-Jul-28 18:27N 30°27' E 123°05'1111.9
2014-Jul-28 17:31N 30°37' E 123°00'1111.4
2014-Jul-28 16:33N 30°47' E 122°53'1111.0
2014-Jul-28 15:31N 30°55' E 122°45'22 9.5
2014-Jul-28 13:13N 31°01' E 122°20'5 6.9
2014-Jul-28 12:31N 31°02' E 122°15'3210.7
2014-Jul-28 09:32N 31°19' E 121°42'1010.7
2014-Jul-28 08:33N 31°24' E 121°32'3 2.8
2014-Jul-28 07:33N 31°21' E 121°31'0 0.0
2014-Jul-28 06:27N 31°21' E 121°31'0 0.0
2014-Jul-28 05:21N 31°21' E 121°31'0 0.0
2014-Jul-28 04:33N 31°21' E 121°31'0 0.0
2014-Jul-28 03:33N 31°21' E 121°31'0 0.0
2014-Jul-28 02:33N 31°21' E 121°31'0 0.0
2014-Jul-28 01:27N 31°21' E 121°31'0 0.1
2014-Jul-28 00:33N 31°21' E 121°31'0 0.0
2014-Jul-27 23:27N 31°21' E 121°31'0 0.0
2014-Jul-27 22:33N 31°21' E 121°31'0 0.0
2014-Jul-27 21:33N 31°21' E 121°31'0 0.0
2014-Jul-27 20:33N 31°21' E 121°31'3 2.9
2014-Jul-27 19:33N 31°24' E 121°32'6 5.7
2014-Jul-27 18:33N 31°22' E 121°38'4210.3
2014-Jul-27 14:28N 31°02' E 122°21'12 9.4
2014-Jul-27 13:14N 31°00' E 122°35'8 0.2
2014-Jul-26 03:33N 30°53' E 122°31'1111.4
2014-Jul-26 02:33N 30°49' E 122°19'1111.0
2014-Jul-26 01:33N 30°39' E 122°14'9 6.4
2014-Jul-26 00:09N 30°30' E 122°13'0 0.0
2014-Jul-25 23:21N 30°30' E 122°13'0 0.1
2014-Jul-25 22:27N 30°30' E 122°14'0 0.0
2014-Jul-25 21:15N 30°30' E 122°14'0 0.0
2014-Jul-25 20:33N 30°30' E 122°14'0 0.0
2014-Jul-25 19:27N 30°30' E 122°14'0 0.0
2014-Jul-25 18:27N 30°30' E 122°14'0 0.0
2014-Jul-25 17:33N 30°30' E 122°14'0 0.0
2014-Jul-25 16:09N 30°30' E 122°14'0 0.0
2014-Jul-25 09:21N 30°30' E 122°14'0 0.1
2014-Jul-25 08:27N 30°30' E 122°14'0 0.0
2014-Jul-25 07:33N 30°30' E 122°14'0 0.0
2014-Jul-25 06:33N 30°30' E 122°14'0 0.1
2014-Jul-25 05:27N 30°30' E 122°14'0 0.0
2014-Jul-25 04:27N 30°30' E 122°14'0 0.0
2014-Jul-24 22:27N 30°30' E 122°13'0 0.0
2014-Jul-24 21:09N 30°30' E 122°13'0 0.0
2014-Jul-24 16:33N 30°30' E 122°13'0 0.0
2014-Jul-24 08:33N 30°30' E 122°13'0 0.1
2014-Jul-24 07:33N 30°30' E 122°14'0 0.1
2014-Jul-24 06:27N 30°30' E 122°14'0 0.0
2014-Jul-24 05:21N 30°30' E 122°14'0 0.1
2014-Jul-24 04:15N 30°30' E 122°14'0 0.0
2014-Jul-24 03:09N 30°30' E 122°13'0 0.0
2014-Jul-24 02:15N 30°30' E 122°13'0 0.1
2014-Jul-24 01:21N 30°30' E 122°13'0 0.0
2014-Jul-24 00:33N 30°30' E 122°13'0 0.0
2014-Jul-23 19:21N 30°30' E 122°14'0 0.0
2014-Jul-23 18:33N 30°30' E 122°14'0 0.0
2014-Jul-23 15:33N 30°30' E 122°14'0 0.1
2014-Jul-23 14:33N 30°30' E 122°13'0 0.0
2014-Jul-23 13:27N 30°30' E 122°13'0 0.0
2014-Jul-23 11:33N 30°30' E 122°13'0 0.0
2014-Jul-23 10:27N 30°30' E 122°13'0 0.1
2014-Jul-23 09:09N 30°30' E 122°13'0 0.0
2014-Jul-23 08:27N 30°30' E 122°13'0 0.1
2014-Jul-23 07:21N 30°30' E 122°14'0 0.1
2014-Jul-23 06:09N 30°30' E 122°14'0 0.0
2014-Jul-23 05:27N 30°30' E 122°14'0 0.1
2014-Jul-23 04:33N 30°30' E 122°14'5 5.2
2014-Jul-23 03:33N 30°34' E 122°12'10 9.8
2014-Jul-23 02:34N 30°44' E 122°16'1010.1
2014-Jul-23 01:33N 30°52' E 122°23'1110.4
2014-Jul-23 00:30N 30°56' E 122°34'7 1.7
2014-Jul-22 20:33N 31°02' E 122°38'0 0.0
2014-Jul-21 00:33N 31°02' E 122°38'0 0.0
2014-Jul-20 20:31N 31°02' E 122°38'20 9.5
2014-Jul-20 18:23N 30°57' E 123°00'1112.6
2014-Jul-20 17:32N 30°51' E 123°11'2412.1
2014-Jul-20 15:31N 30°28' E 123°20'2712.4
2014-Jul-20 13:22N 30°02' E 123°20'2812.4
2014-Jul-20 11:05N 29°34' E 123°14'1212.4
2014-Jul-20 10:08N 29°22' E 123°12'  

Dump ship's entire track history